Time;durP1;ratioP1;P1;durP2;ratioP2;P2;SDS_P1;SDS_P2;PMS_P1;PMS_P2;Temp;Humidity;BMP_temperature;BMP_pressure;BME280_temperature;BME280_humidity;BME280_pressure;Samples;Min_cycle;Max_cycle;Signal;HPM_P1;HPM_P2
2020/12/20 00:01:00;;;;;;;25.63;15.35;;;;;;;2.12;89.85;101501.50;5027837;28;20132;-54
2020/12/20 00:03:27;;;;;;;25.65;15.45;;;;;;;2.06;89.33;101499.78;5005558;28;20053;-58
2020/12/20 00:05:54;;;;;;;29.75;16.55;;;;;;;2.10;89.85;101509.28;5028764;28;20449;-56
2020/12/20 00:08:21;;;;;;;24.67;15.57;;;;;;;2.02;89.90;101509.34;5024986;28;20057;-60
2020/12/20 00:10:47;;;;;;;25.23;16.30;;;;;;;2.04;89.70;101506.75;5028386;28;20062;-55
2020/12/20 00:13:17;;;;;;;23.92;15.40;;;;;;;1.95;90.29;101506.84;5007538;28;20057;-57
2020/12/20 00:15:44;;;;;;;24.17;15.85;;;;;;;1.90;90.21;101504.28;5028486;28;20100;-59
2020/12/20 00:18:11;;;;;;;28.95;16.63;;;;;;;1.81;90.82;101504.38;5025326;28;20080;-59
2020/12/20 00:20:38;;;;;;;28.23;17.38;;;;;;;1.84;90.23;101506.06;5027378;28;20076;-56
2020/12/20 00:23:05;;;;;;;27.38;17.00;;;;;;;1.93;90.10;101503.38;5026011;28;20144;-57
2020/12/20 00:25:31;;;;;;;25.30;15.73;;;;;;;1.78;90.79;101496.59;5028175;28;20057;-59
2020/12/20 00:27:58;;;;;;;25.35;16.13;;;;;;;1.82;90.49;101484.47;5027337;28;20521;-60
2020/12/20 00:30:25;;;;;;;26.80;16.27;;;;;;;1.73;90.51;101490.59;5027299;28;20140;-58
2020/12/20 00:32:51;;;;;;;25.67;15.77;;;;;;;1.76;90.51;101481.03;5027369;28;20068;-56
2020/12/20 00:35:18;;;;;;;24.88;16.05;;;;;;;1.70;91.24;101485.41;5027311;28;20261;-56
2020/12/20 00:37:45;;;;;;;27.38;16.10;;;;;;;1.64;91.24;101486.34;5009388;28;20045;-56
2020/12/20 00:40:12;;;;;;;26.88;16.27;;;;;;;1.62;91.32;101490.69;5027843;28;20052;-55
2020/12/20 00:42:39;;;;;;;27.70;17.15;;;;;;;1.67;91.34;101485.47;5028683;28;20552;-57
2020/12/20 00:45:06;;;;;;;28.20;16.23;;;;;;;1.64;91.09;101481.16;5012105;28;20085;-57
2020/12/20 00:47:33;;;;;;;26.55;15.45;;;;;;;1.63;91.04;101487.22;5009002;28;20049;-57
2020/12/20 00:50:00;;;;;;;26.83;16.10;;;;;;;1.59;90.98;101485.50;5026670;28;20054;-57
2020/12/20 00:52:26;;;;;;;27.33;17.73;;;;;;;1.60;91.34;101484.63;5026321;28;20088;-60
2020/12/20 00:54:53;;;;;;;24.88;16.75;;;;;;;1.76;91.57;101490.56;4998563;28;20052;-59
2020/12/20 00:57:20;;;;;;;26.63;16.25;;;;;;;1.88;90.82;101493.03;5026893;28;20046;-56
2020/12/20 00:59:47;;;;;;;22.33;15.40;;;;;;;1.96;90.69;101498.16;5026148;28;20073;-56
2020/12/20 01:02:14;;;;;;;25.48;16.25;;;;;;;1.97;90.00;101500.72;5027052;28;20057;-58
2020/12/20 01:04:40;;;;;;;25.83;15.63;;;;;;;2.00;89.17;101505.91;5024184;28;20053;-57
2020/12/20 01:07:07;;;;;;;26.90;16.50;;;;;;;1.97;89.70;101510.25;5009129;28;20140;-56
2020/12/20 01:09:34;;;;;;;25.13;16.40;;;;;;;1.81;89.68;101506.09;5025898;28;20160;-58
2020/12/20 01:12:01;;;;;;;26.13;16.67;;;;;;;1.62;90.14;101516.66;5026326;28;20049;-59
2020/12/20 01:14:28;;;;;;;27.27;17.42;;;;;;;1.49;91.17;101522.78;5026065;28;20067;-59
2020/12/20 01:16:55;;;;;;;27.10;16.10;;;;;;;1.60;90.98;101515.78;5009833;28;20041;-55
2020/12/20 01:19:38;;;;;;;33.65;19.40;;;;;;;1.59;91.45;101511.47;5026866;28;20140;-54
2020/12/20 01:22:04;;;;;;;28.65;16.30;;;;;;;1.59;91.24;101508.00;5026213;28;20651;-59
2020/12/20 01:24:31;;;;;;;25.80;16.38;;;;;;;1.52;91.39;101508.03;5025735;28;20061;-57
2020/12/20 01:26:58;;;;;;;28.45;16.75;;;;;;;1.50;90.96;101516.72;5003787;28;20104;-56
2020/12/20 01:29:25;;;;;;;27.00;16.55;;;;;;;1.47;91.39;101508.94;5024530;28;20200;-54
2020/12/20 01:31:52;;;;;;;25.88;16.63;;;;;;;1.47;91.35;101514.16;5025979;28;20072;-57
2020/12/20 01:34:19;;;;;;;28.27;17.85;;;;;;;1.48;91.64;101513.25;5025146;28;20132;-58
2020/12/20 01:36:45;;;;;;;30.65;18.05;;;;;;;1.45;91.03;101501.19;5028433;28;20053;-56
2020/12/20 01:39:14;;;;;;;28.20;17.75;;;;;;;1.58;91.02;101498.50;5029623;28;20053;-59
2020/12/20 01:41:41;;;;;;;27.05;17.58;;;;;;;1.49;91.22;101502.91;5029853;28;20049;-56
2020/12/20 01:44:08;;;;;;;27.42;16.90;;;;;;;1.49;91.39;101492.50;5029278;28;20065;-56
2020/12/20 01:46:38;;;;;;;26.20;16.70;;;;;;;1.63;91.06;101496.75;5029858;28;20414;-55
2020/12/20 01:49:09;;;;;;;29.45;17.70;;;;;;;1.51;90.94;101495.94;5012837;28;20046;-60
2020/12/20 01:51:36;;;;;;;28.05;17.52;;;;;;;1.50;91.55;101498.56;4988129;28;20534;-61
2020/12/20 01:54:04;;;;;;;27.75;17.65;;;;;;;1.51;90.96;101498.53;4971103;28;20380;-58
2020/12/20 01:56:32;;;;;;;26.83;16.40;;;;;;;1.46;90.97;101499.44;4972995;28;20786;-62
2020/12/20 01:59:00;;;;;;;29.45;17.75;;;;;;;1.50;91.55;101490.78;4991052;28;20050;-60
2020/12/20 02:01:27;;;;;;;29.67;17.63;;;;;;;1.48;91.22;101493.38;4991744;28;20054;-61
2020/12/20 02:03:53;;;;;;;29.60;18.73;;;;;;;1.48;91.54;101493.38;4991817;28;20054;-59
2020/12/20 02:06:20;;;;;;;28.00;18.85;;;;;;;1.43;91.20;101489.94;4976573;28;20061;-60
2020/12/20 02:08:46;;;;;;;27.13;16.80;;;;;;;1.40;91.40;101492.59;4978683;28;20110;-60
2020/12/20 02:11:18;;;;;;;27.42;17.38;;;;;;;1.38;91.61;101494.31;4994451;28;20586;-61
2020/12/20 02:13:49;;;;;;;29.05;18.77;;;;;;;1.37;91.86;101483.97;4997109;28;20050;-60
2020/12/20 02:16:20;;;;;;;28.90;17.60;;;;;;;1.29;91.50;101483.16;4995776;28;21045;-57
2020/12/20 02:18:48;;;;;;;29.23;18.25;;;;;;;1.29;92.18;101489.19;4999510;28;20058;-61
2020/12/20 02:21:21;;;;;;;32.42;18.42;;;;;;;1.30;91.76;101498.69;4957129;28;20577;-58
2020/12/20 02:23:50;;;;;;;30.27;18.42;;;;;;;1.36;91.56;101490.88;4977669;28;20062;-62
2020/12/20 02:26:24;;;;;;;31.88;18.52;;;;;;;1.29;91.58;101491.78;4994151;28;20058;-60
2020/12/20 02:28:51;;;;;;;32.05;19.13;;;;;;;1.38;91.07;101488.25;4969397;28;20178;-61
2020/12/20 02:31:19;;;;;;;29.35;18.00;;;;;;;1.33;91.56;101484.84;4990452;28;20185;-61
2020/12/20 02:33:46;;;;;;;26.85;16.67;;;;;;;1.37;92.02;101489.16;4991648;28;20050;-60
2020/12/20 02:36:13;;;;;;;28.33;18.38;;;;;;;1.39;91.79;101484.78;4988587;28;20138;-58
2020/12/20 02:38:40;;;;;;;28.15;17.88;;;;;;;1.34;91.46;101484.81;4991380;28;20061;-59
2020/12/20 02:41:07;;;;;;;30.42;19.40;;;;;;;1.44;91.05;101486.50;4991179;28;20134;-57
2020/12/20 02:43:33;;;;;;;28.67;18.63;;;;;;;1.44;91.12;101477.81;4989451;28;20066;-58
2020/12/20 02:46:01;;;;;;;29.65;18.58;;;;;;;1.37;91.69;101477.03;4990476;28;20050;-59
2020/12/20 02:48:27;;;;;;;28.20;18.02;;;;;;;1.43;91.18;101474.38;4989002;28;20070;-60
2020/12/20 02:50:54;;;;;;;25.38;16.15;;;;;;;1.67;90.63;101478.53;4992756;28;20605;-57
2020/12/20 02:53:21;;;;;;;28.42;17.48;;;;;;;1.65;90.19;101474.22;4972783;28;20058;-56
2020/12/20 02:55:47;;;;;;;29.70;18.73;;;;;;;1.68;89.75;101469.00;4995621;28;20054;-62
2020/12/20 02:58:14;;;;;;;27.30;17.55;;;;;;;1.64;90.31;101473.34;4964973;28;20148;-60
2020/12/20 03:00:42;;;;;;;31.90;19.83;;;;;;;1.75;89.73;101470.66;4995187;28;20593;-61
2020/12/20 03:03:09;;;;;;;28.77;18.20;;;;;;;1.71;89.52;101474.16;4975457;28;20062;-62
2020/12/20 03:05:35;;;;;;;30.42;18.13;;;;;;;1.66;90.08;101478.53;4992855;28;20066;-62
2020/12/20 03:08:03;;;;;;;28.85;17.50;;;;;;;1.70;89.88;101473.28;4992960;28;20069;-61
2020/12/20 03:10:29;;;;;;;27.55;18.00;;;;;;;1.70;89.74;101475.88;5000069;28;20046;-59
2020/12/20 03:12:56;;;;;;;29.20;18.50;;;;;;;1.66;89.84;101481.97;4997509;28;20054;-61
2020/12/20 03:15:23;;;;;;;29.08;18.60;;;;;;;1.70;89.63;101478.47;4996410;28;20051;-61
2020/12/20 03:17:50;;;;;;;27.42;17.63;;;;;;;1.60;90.04;101474.25;4997930;28;20054;-60
2020/12/20 03:20:16;;;;;;;31.70;18.60;;;;;;;1.63;90.28;101473.38;4983048;28;20092;-57
2020/12/20 03:22:43;;;;;;;28.70;18.08;;;;;;;1.54;90.13;101465.66;4991878;28;20065;-57
2020/12/20 03:25:10;;;;;;;31.83;18.80;;;;;;;1.49;90.89;101469.16;4991287;28;20050;-60
2020/12/20 03:27:38;;;;;;;29.83;18.75;;;;;;;1.48;90.43;101461.38;4991144;28;20082;-62
2020/12/20 03:30:05;;;;;;;26.55;17.70;;;;;;;1.59;90.95;101462.16;4989712;28;20058;-60
2020/12/20 03:32:32;;;;;;;29.42;17.65;;;;;;;1.53;90.57;101467.38;4992652;28;20063;-60
2020/12/20 03:34:59;;;;;;;33.65;20.42;;;;;;;1.58;90.47;101454.41;4986601;28;20081;-58
2020/12/20 03:37:26;;;;;;;28.13;18.30;;;;;;;1.63;90.66;101463.00;4987329;28;20092;-60
2020/12/20 03:39:53;;;;;;;30.02;18.52;;;;;;;1.69;89.66;101466.38;4989334;28;20088;-58
2020/12/20 03:42:20;;;;;;;28.88;18.27;;;;;;;1.58;90.13;101465.63;4989199;28;20176;-61
2020/12/20 03:44:46;;;;;;;28.50;19.27;;;;;;;1.66;90.22;101468.13;4986571;28;20065;-60
2020/12/20 03:47:13;;;;;;;29.60;18.42;;;;;;;1.60;89.86;101474.25;4990403;28;20053;-60
2020/12/20 03:49:40;;;;;;;30.75;18.65;;;;;;;1.63;89.82;101474.25;4989467;28;20054;-58
2020/12/20 03:52:06;;;;;;;27.90;19.60;;;;;;;1.57;89.93;101473.41;4983981;28;20061;-63
2020/12/20 03:54:33;;;;;;;31.85;19.02;;;;;;;1.74;89.42;101472.38;4971472;28;20058;-59
2020/12/20 03:57:00;;;;;;;28.42;17.38;;;;;;;1.76;89.36;101477.59;4987585;28;20542;-58
2020/12/20 03:59:28;;;;;;;27.15;17.60;;;;;;;1.91;89.25;101474.84;4990657;28;20050;-60
2020/12/20 04:01:55;;;;;;;29.42;19.08;;;;;;;1.88;88.98;101474.00;4972070;28;20066;-61
2020/12/20 04:04:22;;;;;;;27.42;18.23;;;;;;;1.86;88.79;101479.22;4988145;28;20077;-58
2020/12/20 04:06:49;;;;;;;28.10;18.05;;;;;;;1.83;88.54;101471.44;4990251;28;20050;-57
2020/12/20 04:09:15;;;;;;;28.80;18.40;;;;;;;1.94;88.82;101482.59;4990436;28;20056;-61
2020/12/20 04:11:43;;;;;;;29.25;18.75;;;;;;;1.91;88.86;101485.22;4991798;28;20515;-58
2020/12/20 04:14:09;;;;;;;26.98;18.42;;;;;;;1.89;88.44;101479.19;4987727;28;20089;-59
2020/12/20 04:16:36;;;;;;;32.67;18.83;;;;;;;1.85;88.70;101471.47;4988403;28;20423;-61
2020/12/20 04:19:03;;;;;;;29.55;19.23;;;;;;;1.93;88.67;101467.88;4987965;28;20601;-61
2020/12/20 04:21:30;;;;;;;30.95;19.25;;;;;;;2.03;87.96;101471.28;4984198;28;20058;-62
2020/12/20 04:23:58;;;;;;;30.20;19.52;;;;;;;2.03;88.33;101471.28;4967758;28;20069;-59
2020/12/20 04:26:24;;;;;;;29.45;18.73;;;;;;;2.06;88.19;101472.97;4988363;28;20074;-62
2020/12/20 04:28:51;;;;;;;29.85;18.92;;;;;;;1.88;88.23;101474.00;4986043;28;20514;-61
2020/12/20 04:31:18;;;;;;;27.75;18.52;;;;;;;1.88;88.61;101480.06;4987450;28;20054;-61
2020/12/20 04:33:46;;;;;;;27.75;18.40;;;;;;;1.79;89.27;101474.94;4986860;28;20058;-60
2020/12/20 04:36:13;;;;;;;27.95;18.25;;;;;;;1.85;88.69;101472.31;4987566;28;20050;-59
2020/12/20 04:38:40;;;;;;;26.55;17.65;;;;;;;1.77;89.27;101476.72;4987622;28;20058;-58
2020/12/20 04:41:09;;;;;;;27.30;17.20;;;;;;;1.77;89.09;101477.56;4988165;28;20089;-60
2020/12/20 04:43:35;;;;;;;27.55;18.20;;;;;;;1.80;88.94;101471.47;4987644;28;20051;-59
2020/12/20 04:46:03;;;;;;;29.05;18.70;;;;;;;1.76;89.61;101472.41;4989554;28;20065;-59
2020/12/20 04:48:38;;;;;;;32.70;21.05;;;;;;;1.73;89.08;101470.69;4987744;28;20058;-56
2020/12/20 04:51:05;;;;;;;29.90;18.83;;;;;;;1.73;89.68;101467.22;4998230;28;20050;-58
2020/12/20 04:53:32;;;;;;;30.85;19.63;;;;;;;1.62;89.51;101471.63;4993263;28;20409;-61
2020/12/20 04:56:09;;;;;;;27.42;18.27;;;;;;;1.53;90.06;101469.97;4993512;28;20157;-60
2020/12/20 04:58:37;;;;;;;30.80;20.38;;;;;;;1.52;90.14;101479.50;4992524;28;20069;-59
2020/12/20 05:01:05;;;;;;;31.23;20.20;;;;;;;1.41;90.64;101473.53;4989088;28;20058;-59
2020/12/20 05:03:32;;;;;;;29.95;19.98;;;;;;;1.48;90.42;101474.34;4986869;28;20066;-59
2020/12/20 05:05:59;;;;;;;31.05;19.77;;;;;;;1.38;90.49;101467.50;4990892;28;20058;-61
2020/12/20 05:08:25;;;;;;;28.98;19.40;;;;;;;1.36;90.80;101470.13;4989779;28;20065;-61
2020/12/20 05:10:53;;;;;;;32.17;20.02;;;;;;;1.30;90.98;101472.75;4993921;28;20470;-60
2020/12/20 05:13:23;;;;;;;33.90;20.00;;;;;;;1.32;91.19;101476.22;4987987;28;20058;-61
2020/12/20 05:15:49;;;;;;;34.63;21.05;;;;;;;1.33;91.36;101469.28;4991605;28;20511;-57
2020/12/20 05:18:17;;;;;;;33.13;21.83;;;;;;;1.37;90.75;101481.34;4988115;28;20065;-61
2020/12/20 05:20:46;;;;;;;33.25;21.45;;;;;;;1.30;91.33;101475.34;4991360;28;20092;-58
2020/12/20 05:23:14;;;;;;;35.80;21.98;;;;;;;1.23;91.67;101474.53;4990361;28;20061;-61
2020/12/20 05:25:43;;;;;;;33.58;21.75;;;;;;;1.17;91.80;101481.47;4988942;28;20054;-60
2020/12/20 05:28:18;;;;;;;34.25;21.52;;;;;;;1.17;91.44;101473.69;4964741;28;20055;-60
2020/12/20 05:30:47;;;;;;;34.75;20.80;;;;;;;1.14;91.91;101477.19;4986652;28;20074;-61
2020/12/20 05:33:25;;;;;;;32.63;21.17;;;;;;;1.08;92.02;101481.53;4989147;28;20086;-58
2020/12/20 05:36:02;;;;;;;37.08;21.25;;;;;;;1.10;91.96;101487.59;4987584;28;20152;-60
2020/12/20 05:38:30;;;;;;;33.03;22.45;;;;;;;1.07;91.98;101482.41;4987087;28;20078;-59
2020/12/20 05:40:57;;;;;;;33.03;21.02;;;;;;;1.05;91.82;101494.53;4988498;28;20058;-61
2020/12/20 05:43:24;;;;;;;34.45;21.27;;;;;;;1.00;92.17;101492.84;4985189;28;20570;-60
2020/12/20 05:45:51;;;;;;;36.80;21.90;;;;;;;1.02;92.40;101495.41;4988911;28;20392;-59
2020/12/20 05:48:20;;;;;;;31.67;20.27;;;;;;;0.98;92.18;101494.56;4984794;28;20400;-60
2020/12/20 05:51:01;;;;;;;36.53;21.08;;;;;;;0.99;92.13;101493.72;4988521;28;20052;-62
2020/12/20 05:53:32;;;;;;;36.38;22.08;;;;;;;0.92;92.25;101496.34;4985657;28;20081;-59
2020/12/20 05:56:01;;;;;;;36.92;22.58;;;;;;;1.00;92.38;101495.44;4987750;28;20069;-58
2020/12/20 05:58:32;;;;;;;37.85;22.70;;;;;;;1.08;92.07;101495.41;4984948;28;20053;-61
2020/12/20 06:01:00;;;;;;;35.53;22.55;;;;;;;1.04;91.65;101500.56;4989110;28;20109;-60
2020/12/20 06:03:27;;;;;;;33.13;21.27;;;;;;;1.02;92.10;101500.59;4984943;28;20593;-60
2020/12/20 06:05:53;;;;;;;36.25;21.55;;;;;;;1.12;91.79;101504.84;4988156;28;20082;-59
2020/12/20 06:08:23;;;;;;;34.80;21.30;;;;;;;1.01;91.69;101507.50;4985238;28;20065;-56
2020/12/20 06:10:51;;;;;;;35.47;21.73;;;;;;;0.99;92.02;101505.78;4984920;28;20701;-62
2020/12/20 06:13:22;;;;;;;38.78;22.58;;;;;;;0.89;92.42;101510.16;4984158;28;20149;-60
2020/12/20 06:15:54;;;;;;;36.97;21.48;;;;;;;0.83;92.38;101505.03;4996929;28;20062;-60
2020/12/20 06:18:28;;;;;;;37.63;22.77;;;;;;;0.88;92.78;101505.84;4983277;28;20058;-58
2020/12/20 06:20:56;;;;;;;34.78;21.80;;;;;;;0.91;92.76;101511.03;4988221;28;20059;-63
2020/12/20 06:23:24;;;;;;;38.28;22.65;;;;;;;0.89;92.65;101507.56;4989585;28;20066;-62
2020/12/20 06:25:52;;;;;;;36.75;21.48;;;;;;;0.81;92.67;101508.47;4992313;28;20634;-60
2020/12/20 06:28:22;;;;;;;40.20;23.40;;;;;;;0.90;92.45;101506.72;4989018;28;20089;-59
2020/12/20 06:30:49;;;;;;;38.90;22.67;;;;;;;0.85;92.61;101508.44;4989378;28;20050;-58
2020/12/20 06:33:20;;;;;;;37.10;22.63;;;;;;;0.86;92.53;101509.34;4988258;28;20069;-60
2020/12/20 06:35:49;;;;;;;35.97;22.48;;;;;;;0.81;92.70;101505.88;4981011;28;20046;-59
2020/12/20 06:38:23;;;;;;;34.08;21.58;;;;;;;0.84;92.69;101513.66;4966711;28;20122;-57
2020/12/20 06:40:50;;;;;;;37.22;21.98;;;;;;;0.82;92.67;101507.63;4972916;28;20158;-61
2020/12/20 06:43:31;;;;;;;41.90;24.98;;;;;;;0.82;92.46;101503.31;4987245;28;20367;-60
2020/12/20 06:45:59;;;;;;;40.55;23.13;;;;;;;0.72;92.81;101506.78;4992400;28;20066;-59
2020/12/20 06:48:35;;;;;;;37.92;23.95;;;;;;;0.78;93.13;101505.91;4988439;28;20690;-58
2020/12/20 06:51:04;;;;;;;38.05;22.30;;;;;;;0.84;92.91;101505.88;4991264;28;20466;-61
2020/12/20 06:53:46;;;;;;;38.33;23.90;;;;;;;0.96;92.27;101509.28;4988875;28;20100;-59
2020/12/20 06:56:14;;;;;;;37.85;22.58;;;;;;;0.94;92.67;101504.94;4989602;28;20062;-59
2020/12/20 06:58:41;;;;;;;38.58;21.80;;;;;;;1.05;91.74;101502.31;4961753;28;20077;-61
2020/12/20 07:01:08;;;;;;;38.17;22.70;;;;;;;1.10;91.44;101505.75;4990798;28;20562;-60
2020/12/20 07:03:40;;;;;;;35.85;22.40;;;;;;;1.06;91.57;101506.63;4991615;28;20081;-61
2020/12/20 07:06:06;;;;;;;37.50;22.85;;;;;;;1.14;90.90;101517.81;4993619;28;20085;-59
2020/12/20 07:09:04;;;;;;;37.35;23.35;;;;;;;1.14;91.10;101505.72;4985701;28;20055;-60
2020/12/20 07:11:31;;;;;;;35.60;22.17;;;;;;;1.20;91.01;101517.78;4996678;28;20058;-58
2020/12/20 07:13:58;;;;;;;40.60;22.55;;;;;;;1.27;90.55;101516.88;5001301;28;20191;-61
2020/12/20 07:16:37;;;;;;;35.40;22.55;;;;;;;1.30;90.39;101505.59;5003514;28;20050;-60
2020/12/20 07:19:06;;;;;;;39.08;22.35;;;;;;;1.27;90.61;101506.50;5002674;28;20069;-61
2020/12/20 07:21:41;;;;;;;36.20;22.05;;;;;;;1.26;90.08;101502.16;4998556;28;20069;-60
2020/12/20 07:24:10;;;;;;;35.45;21.98;;;;;;;1.30;90.16;101510.78;4993610;28;20090;-62
2020/12/20 07:26:37;;;;;;;38.70;23.75;;;;;;;1.29;90.57;101509.09;4977012;28;20041;-57
2020/12/20 07:29:06;;;;;;;35.10;22.10;;;;;;;1.31;90.30;101507.34;4992453;28;20068;-61
2020/12/20 07:31:33;;;;;;;37.38;22.27;;;;;;;1.32;90.28;101509.94;4997568;28;20074;-61
2020/12/20 07:34:00;;;;;;;38.78;23.50;;;;;;;1.29;90.19;101522.06;4997895;28;20054;-62
2020/12/20 07:36:27;;;;;;;35.30;22.58;;;;;;;1.32;89.80;101528.09;4994163;28;20061;-59
2020/12/20 07:38:54;;;;;;;43.88;24.05;;;;;;;1.32;90.19;101535.88;4979323;28;20062;-61
2020/12/20 07:41:23;;;;;;;36.53;23.17;;;;;;;1.39;89.85;101531.50;4994396;28;20081;-62
2020/12/20 07:43:51;;;;;;;40.92;22.77;;;;;;;1.37;89.77;101526.31;4985465;28;20058;-62
2020/12/20 07:46:20;;;;;;;40.28;23.35;;;;;;;1.48;90.31;101529.69;4991567;28;20085;-59
2020/12/20 07:48:47;;;;;;;36.97;22.42;;;;;;;1.51;89.42;101523.63;4992955;28;20063;-58
2020/12/20 07:51:21;;;;;;;38.30;22.90;;;;;;;1.42;89.22;101529.75;5009490;23;20050;-57
2020/12/20 07:53:52;;;;;;;40.72;23.33;;;;;;;1.36;90.00;101524.59;5007029;28;20511;-56
2020/12/20 07:56:26;;;;;;;40.30;23.77;;;;;;;1.31;89.90;101520.31;5006053;28;20053;-57
2020/12/20 07:58:55;;;;;;;37.33;22.67;;;;;;;1.32;89.60;101525.50;5004350;28;20050;-57
2020/12/20 08:01:22;;;;;;;42.15;23.45;;;;;;;1.34;90.00;101528.94;4989974;28;20503;-54
2020/12/20 08:03:48;;;;;;;42.53;23.60;;;;;;;1.36;89.96;101528.94;5007171;28;20054;-55
2020/12/20 08:06:16;;;;;;;39.20;21.88;;;;;;;1.42;89.92;101541.84;5006333;28;20054;-57
2020/12/20 08:08:44;;;;;;;38.50;22.83;;;;;;;1.43;89.58;101538.38;5007367;28;20062;-56
2020/12/20 08:11:26;;;;;;;41.05;22.52;;;;;;;1.51;89.59;101536.59;5007435;28;20137;-56
2020/12/20 08:13:54;;;;;;;37.15;21.02;;;;;;;1.58;89.15;101542.63;5005971;28;20136;-59
2020/12/20 08:16:22;;;;;;;36.03;21.80;;;;;;;1.63;88.57;101535.66;5006417;28;20068;-57
2020/12/20 08:18:58;;;;;;;42.58;24.00;;;;;;;1.71;88.05;101549.44;5006685;28;20638;-54
2020/12/20 08:21:49;;;;;;;38.30;22.40;;;;;;;1.70;88.01;101550.31;5006020;28;20097;-59
2020/12/20 08:24:17;;;;;;;36.83;20.75;;;;;;;1.76;87.99;101540.75;4989871;28;20054;-53
2020/12/20 08:26:44;;;;;;;37.08;21.15;;;;;;;1.80;87.47;101538.09;4989985;28;20057;-54
2020/12/20 08:29:12;;;;;;;37.40;23.20;;;;;;;1.84;87.51;101539.81;5006578;28;20411;-57
2020/12/20 08:31:43;;;;;;;35.70;21.15;;;;;;;1.84;87.30;101538.06;5006564;28;20111;-57
2020/12/20 08:34:23;;;;;;;38.33;22.98;;;;;;;1.88;87.30;101537.16;5007312;28;20096;-52
2020/12/20 08:36:51;;;;;;;36.97;21.05;;;;;;;2.23;85.77;101544.66;5000983;28;20101;-57
2020/12/20 08:39:24;;;;;;;35.83;20.75;;;;;;;2.62;84.51;101544.25;5007867;28;20045;-55
2020/12/20 08:42:01;;;;;;;36.00;21.27;;;;;;;2.64;83.90;101539.88;5007587;28;20119;-53
2020/12/20 08:44:28;;;;;;;38.75;20.45;;;;;;;2.63;83.66;101540.78;5006741;28;20053;-56
2020/12/20 08:47:14;;;;;;;32.25;19.98;;;;;;;2.79;82.98;101550.97;5006053;28;20523;-56
2020/12/20 08:49:56;;;;;;;29.55;18.92;;;;;;;2.66;82.70;101552.00;4989349;28;20050;-57
2020/12/20 08:52:26;;;;;;;32.13;19.60;;;;;;;2.63;83.33;101556.38;5006252;28;20761;-57
2020/12/20 08:54:55;;;;;;;29.90;18.65;;;;;;;3.02;81.51;101555.91;5006569;28;20069;-59
2020/12/20 08:57:28;;;;;;;30.65;19.08;;;;;;;3.82;79.35;101552.13;5004825;28;20050;-55
2020/12/20 09:00:06;;;;;;;30.95;18.27;;;;;;;3.76;78.14;101555.69;5006902;28;20050;-57
2020/12/20 09:02:33;;;;;;;30.80;18.35;;;;;;;3.13;80.62;101552.28;5006329;28;20081;-56
2020/12/20 09:05:09;;;;;;;34.85;19.77;;;;;;;2.81;82.16;101553.56;5008177;28;20740;-57
2020/12/20 09:07:41;;;;;;;32.03;19.77;;;;;;;2.58;82.90;101550.38;5005811;28;20053;-55
2020/12/20 09:10:12;;;;;;;31.35;19.08;;;;;;;2.52;83.73;101549.56;5005847;28;20589;-57
2020/12/20 09:13:00;;;;;;;34.47;20.30;;;;;;;2.65;83.56;101545.06;5005902;28;20060;-58
2020/12/20 09:15:29;;;;;;;30.38;17.88;;;;;;;2.69;83.08;101549.34;5006797;28;20568;-57
2020/12/20 09:18:01;;;;;;;31.52;20.00;;;;;;;2.70;83.13;101545.91;5006229;28;20054;-55
2020/12/20 09:20:29;;;;;;;35.38;19.92;;;;;;;2.77;82.99;101541.47;5005871;28;20073;-56
2020/12/20 09:22:56;;;;;;;31.33;19.90;;;;;;;2.71;82.93;101537.22;5005310;28;20144;-53
2020/12/20 09:25:33;;;;;;;31.20;19.42;;;;;;;2.74;83.12;101529.34;5005066;28;20053;-58
2020/12/20 09:28:02;;;;;;;32.25;18.27;;;;;;;2.90;84.70;101537.84;5005483;28;20143;-58
2020/12/20 09:30:36;;;;;;;31.55;21.13;;;;;;;2.95;82.57;101538.63;5005867;28;20050;-61
2020/12/20 09:33:18;;;;;;;31.45;18.95;;;;;;;2.94;85.05;101539.53;5004991;28;20156;-56
2020/12/20 09:35:49;;;;;;;29.90;19.23;;;;;;;2.90;83.12;101536.97;4989722;28;20048;-57
2020/12/20 09:38:16;;;;;;;34.83;19.92;;;;;;;2.99;83.21;101531.66;5004381;28;20058;-55
2020/12/20 09:40:43;;;;;;;33.50;19.35;;;;;;;2.97;82.95;101539.50;5006101;28;20415;-56
2020/12/20 09:43:17;;;;;;;30.50;18.75;;;;;;;2.99;82.47;101535.13;5004049;28;20053;-55
2020/12/20 09:45:44;;;;;;;28.17;17.58;;;;;;;2.76;82.47;101538.00;4990282;28;20046;-58
2020/12/20 09:48:11;;;;;;;27.98;17.95;;;;;;;2.83;82.82;101546.59;5003990;28;20452;-58
2020/12/20 09:50:37;;;;;;;27.85;17.75;;;;;;;2.86;82.34;101538.75;5004336;28;20061;-57
2020/12/20 09:53:04;;;;;;;29.30;17.48;;;;;;;2.88;82.38;101534.41;5004882;28;20076;-55
2020/12/20 09:55:31;;;;;;;26.38;17.15;;;;;;;2.82;82.40;101534.47;5007500;28;20426;-54
2020/12/20 09:57:58;;;;;;;32.35;18.90;;;;;;;2.79;82.88;101527.59;5009359;28;20514;-60
2020/12/20 10:00:24;;;;;;;27.48;15.77;;;;;;;2.83;82.47;101530.97;5009484;28;20077;-56
2020/12/20 10:02:51;;;;;;;33.60;18.75;;;;;;;2.79;83.04;101526.69;5009668;28;20092;-57
2020/12/20 10:05:18;;;;;;;30.30;17.77;;;;;;;2.71;83.18;101515.56;5007398;28;20054;-60
2020/12/20 10:07:45;;;;;;;30.15;17.80;;;;;;;2.75;83.10;101515.50;5008817;28;20136;-58
2020/12/20 10:10:12;;;;;;;29.30;18.27;;;;;;;2.89;82.85;101511.84;5008315;28;20061;-57
2020/12/20 10:12:40;;;;;;;29.02;17.45;;;;;;;2.95;82.58;101509.16;5009315;28;20054;-58
2020/12/20 10:15:06;;;;;;;32.38;18.38;;;;;;;3.03;82.18;101516.00;5009658;28;20103;-56
2020/12/20 10:17:33;;;;;;;26.15;16.88;;;;;;;3.15;82.21;101517.56;5007884;28;20061;-57
2020/12/20 10:20:00;;;;;;;26.52;17.17;;;;;;;3.32;80.96;101517.31;5008046;28;20057;-56
2020/12/20 10:22:26;;;;;;;26.67;16.55;;;;;;;3.44;80.35;101514.53;5009625;28;20438;-60
2020/12/20 10:24:53;;;;;;;27.95;17.55;;;;;;;3.58;79.76;101518.66;5010102;28;20128;-54
2020/12/20 10:27:20;;;;;;;29.77;18.50;;;;;;;3.71;79.29;101521.06;5009491;28;20053;-57
2020/12/20 10:29:47;;;;;;;25.63;15.35;;;;;;;3.88;78.79;101520.78;5009235;28;20092;-59
2020/12/20 10:32:14;;;;;;;24.00;15.90;;;;;;;3.93;79.03;101520.69;5008970;28;20065;-57
2020/12/20 10:34:41;;;;;;;23.38;15.45;;;;;;;4.06;77.95;101511.78;5009269;28;20141;-56
2020/12/20 10:37:08;;;;;;;25.13;15.75;;;;;;;4.20;77.45;101501.09;5014676;28;20095;-58
2020/12/20 10:39:34;;;;;;;22.42;14.18;;;;;;;4.15;76.67;101509.00;5008382;28;20068;-55
2020/12/20 10:42:01;;;;;;;26.65;16.00;;;;;;;4.37;77.02;101503.38;5009785;28;20691;-61
2020/12/20 10:44:28;;;;;;;26.80;16.15;;;;;;;4.32;77.01;101501.75;4992202;28;20081;-57
2020/12/20 10:46:55;;;;;;;24.67;14.32;;;;;;;4.25;76.93;101501.88;5008964;28;20068;-56
2020/12/20 10:49:23;;;;;;;21.60;13.98;;;;;;;4.17;76.65;101502.00;4992512;28;20400;-59
2020/12/20 10:51:52;;;;;;;22.90;14.90;;;;;;;4.24;76.62;101494.94;5018872;28;20057;-58
2020/12/20 10:54:20;;;;;;;26.33;15.35;;;;;;;4.28;76.52;101502.69;5010075;28;20060;-58
2020/12/20 10:56:48;;;;;;;24.02;15.25;;;;;;;4.43;76.82;101503.28;5017625;28;20053;-59
2020/12/20 10:59:15;;;;;;;22.50;14.07;;;;;;;4.32;76.73;101500.84;5008244;28;20058;-57
2020/12/20 11:01:42;;;;;;;19.58;13.23;;;;;;;4.51;76.08;101502.25;5009168;28;20084;-57
2020/12/20 11:04:09;;;;;;;23.08;14.60;;;;;;;4.42;76.22;101504.19;5007941;28;20503;-57
2020/12/20 11:06:36;;;;;;;20.05;13.18;;;;;;;4.56;75.40;101492.56;5008876;28;20583;-59
2020/12/20 11:09:03;;;;;;;27.45;14.68;;;;;;;4.61;75.35;101491.63;5007710;28;20069;-57
2020/12/20 11:11:31;;;;;;;19.65;12.23;;;;;;;4.63;74.97;101500.25;5011896;28;20045;-56
2020/12/20 11:14:01;;;;;;;20.77;13.02;;;;;;;4.35;75.68;101494.75;4996615;28;20537;-58
2020/12/20 11:16:28;;;;;;;21.63;14.45;;;;;;;4.39;76.13;101489.44;5001881;28;20169;-59
2020/12/20 11:18:55;;;;;;;18.13;12.80;;;;;;;4.44;75.74;101492.81;5006555;28;20578;-58
2020/12/20 11:21:22;;;;;;;24.58;13.38;;;;;;;4.43;75.81;101483.28;5004419;28;20537;-58
2020/12/20 11:23:48;;;;;;;20.73;12.80;;;;;;;4.45;75.83;101478.03;5008544;28;20058;-57